Terminal Aerodrome Forecast
Issued by NWS

Home | Current Version | Previous Version | Text Only | Print | Product List | Glossary On
Versions: 1 2 3 4 5 6 7 8 9 10 11 12 13 14 15 16 17 18 19 20 21 22 23 24 25 26 27 28 29 30 31 32 33 34 35 36 37 38 39 40 41 42 43
000
FTUS41 KBOX 221337 AAA
TAFBED
TAF AMD
KBED 221337Z 2214/2312 03004KT P6SM OVC005
     FM221500 06007KT P6SM SCT005 OVC050
     FM221600 06007KT P6SM OVC040
     FM230200 VRB03KT P6SM BKN080=

USA.gov is the U.S. government's official web portal to all federal, state and local government web resources and services.